Time;durP1;ratioP1;P1;durP2;ratioP2;P2;SDS_P1;SDS_P2;PMS_P1;PMS_P2;Temp;Humidity;BMP_temperature;BMP_pressure;BME280_temperature;BME280_humidity;BME280_pressure;Samples;Min_cycle;Max_cycle;Signal;HPM_P1;HPM_P2
2023/04/28 00:01:32;;;;;;;;;;;;;;;;;;5029616;28;4473;-58
2023/04/28 00:03:57;;;;;;;;;;;;;;;;;;5031261;28;4484;-60
2023/04/28 00:06:23;;;;;;;;;;;;;;;;;;5032084;28;1136;-59
2023/04/28 00:08:48;;;;;;;;;;;;;;;;;;5026137;28;6296;-60
2023/04/28 00:11:13;;;;;;;;;;;;;;;;;;5036881;28;4781;-60
2023/04/28 00:13:38;;;;;;;;;;;;;;;;;;5042378;28;4488;-60
2023/04/28 00:16:04;;;;;;;;;;;;;;;;;;5031108;28;4699;-60
2023/04/28 00:18:29;;;;;;;;;;;;;;;;;;5031574;28;982;-60
2023/04/28 00:20:55;;;;;;;;;;;;;;;;;;5038069;28;4380;-60
2023/04/28 00:23:20;;;;;;;;;;;;;;;;;;5030719;28;5666;-60
2023/04/28 00:25:52;;;;;;;;;;;;;;;;;;5025749;28;4792;-60
2023/04/28 00:28:17;;;;;;;;;;;;;;;;;;5029277;28;5585;-59
2023/04/28 00:30:42;;;;;;;;;;;;;;;;;;5026222;28;4569;-60
2023/04/28 00:33:07;;;;;;;;;;;;;;;;;;5027947;28;1073;-60
2023/04/28 00:35:33;;;;;;;;;;;;;;;;;;5030045;28;5016;-59
2023/04/28 00:37:58;;;;;;;;;;;;;;;;;;5030480;28;4988;-60
2023/04/28 00:40:25;;;;;;;;;;;;;;;;;;5028171;28;5206;-60
2023/04/28 00:42:50;;;;;;;;;;;;;;;;;;5029018;28;4512;-60
2023/04/28 00:45:16;;;;;;;;;;;;;;;;;;5030157;28;1109;-60
2023/04/28 00:47:41;;;;;;;;;;;;;;;;;;5030497;28;4560;-59
2023/04/28 00:50:07;;;;;;;;;;;;;;;;;;5030262;28;4615;-59
2023/04/28 00:52:32;;;;;;;;;;;;;;;;;;5028777;28;4506;-60
2023/04/28 00:54:57;;;;;;;;;;;;;;;;;;5030094;28;4629;-60
2023/04/28 00:57:22;;;;;;;;;;;;;;;;;;5030952;28;1097;-60
2023/04/28 00:59:48;;;;;;;;;;;;;;;;;;5028665;28;4574;-60
2023/04/28 01:02:16;;;;;;;;;;;;;;;;;;5027494;28;5057;-60
2023/04/28 01:04:42;;;;;;;;;;;;;;;;;;5030176;28;5089;-60
2023/04/28 01:07:07;;;;;;;;;;;;;;;;;;5028467;28;4461;-60
2023/04/28 01:09:32;;;;;;;;;;;;;;;;;;5018323;28;6396;-60
2023/04/28 01:11:57;;;;;;;;;;;;;;;;;;5026889;28;4910;-60
2023/04/28 01:14:23;;;;;;;;;;;;;;;;;;5029507;28;4620;-59
2023/04/28 01:16:48;;;;;;;;;;;;;;;;;;5029732;28;4493;-60
2023/04/28 01:19:19;;;;;;;;;;;;;;;;;;5029394;28;4539;-60
2023/04/28 01:21:44;;;;;;;;;;;;;;;;;;5029697;28;5317;-60
2023/04/28 01:24:10;;;;;;;;;;;;;;;;;;5030318;28;1097;-59
2023/04/28 01:26:35;;;;;;;;;;;;;;;;;;5019930;28;4492;-59
2023/04/28 01:29:00;;;;;;;;;;;;;;;;;;5023663;28;5192;-59
2023/04/28 01:31:25;;;;;;;;;;;;;;;;;;5029311;28;5035;-60
2023/04/28 01:33:51;;;;;;;;;;;;;;;;;;5029154;28;4856;-59
2023/04/28 01:36:16;;;;;;;;;;;;;;;;;;5030132;28;1314;-60
2023/04/28 01:38:41;;;;;;;;;;;;;;;;;;5028767;28;4586;-60
2023/04/28 01:41:06;;;;;;;;;;;;;;;;;;5029358;28;4488;-59
2023/04/28 01:43:32;;;;;;;;;;;;;;;;;;5025275;28;4664;-59
2023/04/28 01:45:57;;;;;;;;;;;;;;;;;;5029157;28;4462;-59
2023/04/28 01:48:22;;;;;;;;;;;;;;;;;;5029023;28;1033;-59
2023/04/28 01:50:47;;;;;;;;;;;;;;;;;;5029147;28;4577;-60
2023/04/28 01:53:13;;;;;;;;;;;;;;;;;;5029115;28;4618;-60
2023/04/28 01:55:38;;;;;;;;;;;;;;;;;;5028199;28;4648;-59
2023/04/28 01:58:04;;;;;;;;;;;;;;;;;;5028598;28;4506;-59
2023/04/28 02:00:29;;;;;;;;;;;;;;;;;;5029023;28;1433;-59
2023/04/28 02:02:54;;;;;;;;;;;;;;;;;;5027247;28;4439;-59
2023/04/28 02:05:20;;;;;;;;;;;;;;;;;;5027158;28;4450;-59
2023/04/28 02:07:45;;;;;;;;;;;;;;;;;;5028610;28;4553;-59
2023/04/28 02:10:10;;;;;;;;;;;;;;;;;;5028413;28;6161;-60
2023/04/28 02:12:35;;;;;;;;;;;;;;;;;;5027246;28;4939;-59
2023/04/28 02:15:01;;;;;;;;;;;;;;;;;;5028688;28;1117;-59
2023/04/28 02:17:28;;;;;;;;;;;;;;;;;;5024331;28;4947;-59
2023/04/28 02:19:55;;;;;;;;;;;;;;;;;;5024399;28;4619;-60
2023/04/28 02:22:20;;;;;;;;;;;;;;;;;;5028283;28;4676;-60
2023/04/28 02:24:45;;;;;;;;;;;;;;;;;;5028140;28;4460;-60
2023/04/28 02:27:11;;;;;;;;;;;;;;;;;;5028963;28;1036;-60
2023/04/28 02:29:36;;;;;;;;;;;;;;;;;;5028626;28;4446;-60
2023/04/28 02:32:03;;;;;;;;;;;;;;;;;;5026546;28;4623;-60
2023/04/28 02:34:28;;;;;;;;;;;;;;;;;;5027754;28;4475;-60
2023/04/28 02:36:53;;;;;;;;;;;;;;;;;;5028125;28;4959;-60
2023/04/28 02:39:20;;;;;;;;;;;;;;;;;;5028696;28;1089;-60
2023/04/28 02:41:46;;;;;;;;;;;;;;;;;;5027712;28;4788;-60
2023/04/28 02:44:11;;;;;;;;;;;;;;;;;;5028537;28;4851;-60
2023/04/28 02:46:36;;;;;;;;;;;;;;;;;;5027986;28;4569;-60
2023/04/28 02:49:02;;;;;;;;;;;;;;;;;;5028291;28;4801;-60
2023/04/28 02:51:27;;;;;;;;;;;;;;;;;;5028452;28;1037;-60
2023/04/28 02:53:53;;;;;;;;;;;;;;;;;;5026707;28;4652;-60
2023/04/28 02:56:18;;;;;;;;;;;;;;;;;;5028109;28;4916;-60
2023/04/28 02:58:43;;;;;;;;;;;;;;;;;;5027786;28;5140;-60
2023/04/28 03:01:09;;;;;;;;;;;;;;;;;;5025271;28;4457;-61
2023/04/28 03:03:34;;;;;;;;;;;;;;;;;;5026769;28;4479;-60
2023/04/28 03:05:59;;;;;;;;;;;;;;;;;;5028292;28;1098;-60
2023/04/28 03:08:25;;;;;;;;;;;;;;;;;;5027966;28;6262;-60
2023/04/28 03:10:50;;;;;;;;;;;;;;;;;;5032175;28;5031;-60
2023/04/28 03:13:15;;;;;;;;;;;;;;;;;;5031907;28;4697;-60
2023/04/28 03:15:40;;;;;;;;;;;;;;;;;;5031998;28;4478;-60
2023/04/28 03:18:06;;;;;;;;;;;;;;;;;;5031864;28;1121;-60
2023/04/28 03:20:31;;;;;;;;;;;;;;;;;;5030903;28;5017;-60
2023/04/28 03:22:56;;;;;;;;;;;;;;;;;;5030187;28;4489;-60
2023/04/28 03:25:22;;;;;;;;;;;;;;;;;;5031571;28;4640;-60
2023/04/28 03:27:47;;;;;;;;;;;;;;;;;;5031528;28;4504;-60
2023/04/28 03:30:12;;;;;;;;;;;;;;;;;;5032140;28;1350;-60
2023/04/28 03:32:38;;;;;;;;;;;;;;;;;;5029892;28;4467;-60
2023/04/28 03:35:03;;;;;;;;;;;;;;;;;;5030350;28;5771;-60
2023/04/28 03:37:28;;;;;;;;;;;;;;;;;;5031964;28;4462;-60
2023/04/28 03:39:54;;;;;;;;;;;;;;;;;;5031914;28;4576;-60
2023/04/28 03:42:19;;;;;;;;;;;;;;;;;;5031945;28;1971;-60
2023/04/28 03:44:44;;;;;;;;;;;;;;;;;;5031479;28;5883;-60
2023/04/28 03:47:10;;;;;;;;;;;;;;;;;;5031379;28;4448;-61
2023/04/28 03:49:35;;;;;;;;;;;;;;;;;;5031619;28;5016;-60
2023/04/28 03:52:03;;;;;;;;;;;;;;;;;;5030993;28;4498;-60
2023/04/28 03:54:28;;;;;;;;;;;;;;;;;;5032213;28;1056;-59
2023/04/28 03:56:53;;;;;;;;;;;;;;;;;;5031199;28;4866;-59
2023/04/28 03:59:18;;;;;;;;;;;;;;;;;;5031446;28;4745;-59
2023/04/28 04:01:44;;;;;;;;;;;;;;;;;;5026250;28;4547;-60
2023/04/28 04:04:09;;;;;;;;;;;;;;;;;;5031594;28;4987;-59
2023/04/28 04:06:34;;;;;;;;;;;;;;;;;;5031057;28;5072;-58
2023/04/28 04:09:00;;;;;;;;;;;;;;;;;;5009957;28;6428;-59
2023/04/28 04:11:25;;;;;;;;;;;;;;;;;;5022889;28;4844;-59
2023/04/28 04:13:50;;;;;;;;;;;;;;;;;;5031110;28;4644;-59
2023/04/28 04:16:15;;;;;;;;;;;;;;;;;;5029167;28;4812;-61
2023/04/28 04:18:41;;;;;;;;;;;;;;;;;;5030781;28;4632;-61
2023/04/28 04:21:06;;;;;;;;;;;;;;;;;;5030838;28;2024;-60
2023/04/28 04:23:31;;;;;;;;;;;;;;;;;;5029618;28;4464;-61
2023/04/28 04:25:56;;;;;;;;;;;;;;;;;;5030859;28;5165;-61
2023/04/28 04:28:22;;;;;;;;;;;;;;;;;;5030002;28;4459;-61
2023/04/28 04:30:47;;;;;;;;;;;;;;;;;;5030287;28;4444;-60
2023/04/28 04:33:12;;;;;;;;;;;;;;;;;;5031137;28;1140;-61
2023/04/28 04:35:38;;;;;;;;;;;;;;;;;;5030197;28;4404;-60
2023/04/28 04:38:03;;;;;;;;;;;;;;;;;;5028246;28;4879;-60
2023/04/28 04:40:28;;;;;;;;;;;;;;;;;;5030210;28;4482;-59
2023/04/28 04:42:54;;;;;;;;;;;;;;;;;;5030314;28;5159;-60
2023/04/28 04:45:20;;;;;;;;;;;;;;;;;;5030706;28;1059;-60
2023/04/28 04:47:45;;;;;;;;;;;;;;;;;;5029796;28;4425;-60
2023/04/28 04:50:11;;;;;;;;;;;;;;;;;;5028271;28;4452;-60
2023/04/28 04:52:36;;;;;;;;;;;;;;;;;;5029167;28;4662;-60
2023/04/28 04:55:01;;;;;;;;;;;;;;;;;;5030248;28;4503;-60
2023/04/28 04:57:27;;;;;;;;;;;;;;;;;;5029976;28;1096;-60
2023/04/28 04:59:52;;;;;;;;;;;;;;;;;;5030076;28;4778;-60
2023/04/28 05:02:17;;;;;;;;;;;;;;;;;;5020734;28;4618;-60
2023/04/28 05:04:42;;;;;;;;;;;;;;;;;;5029589;28;4654;-60
2023/04/28 05:07:08;;;;;;;;;;;;;;;;;;5029860;28;4507;-60
2023/04/28 05:09:33;;;;;;;;;;;;;;;;;;5028995;28;6402;-60
2023/04/28 05:11:58;;;;;;;;;;;;;;;;;;5029292;28;4730;-60
2023/04/28 05:14:23;;;;;;;;;;;;;;;;;;5027191;28;4616;-60
2023/04/28 05:16:49;;;;;;;;;;;;;;;;;;5029526;28;4953;-60
2023/04/28 05:19:14;;;;;;;;;;;;;;;;;;5028199;28;5738;-60
2023/04/28 05:21:40;;;;;;;;;;;;;;;;;;5029560;28;4487;-60
2023/04/28 05:24:05;;;;;;;;;;;;;;;;;;5029443;28;1131;-60
2023/04/28 05:26:30;;;;;;;;;;;;;;;;;;5029672;28;4802;-60
2023/04/28 05:28:56;;;;;;;;;;;;;;;;;;5029208;28;4450;-60
2023/04/28 05:31:21;;;;;;;;;;;;;;;;;;5027346;28;4725;-60
2023/04/28 05:33:46;;;;;;;;;;;;;;;;;;5029288;28;4619;-60
2023/04/28 05:36:11;;;;;;;;;;;;;;;;;;5030159;28;1105;-60
2023/04/28 05:38:37;;;;;;;;;;;;;;;;;;5028197;28;4820;-60
2023/04/28 05:41:02;;;;;;;;;;;;;;;;;;5027557;28;4434;-60
2023/04/28 05:43:27;;;;;;;;;;;;;;;;;;5029038;28;4466;-60
2023/04/28 05:45:53;;;;;;;;;;;;;;;;;;5029100;28;4697;-60
2023/04/28 05:48:18;;;;;;;;;;;;;;;;;;5029585;28;1073;-60
2023/04/28 05:50:43;;;;;;;;;;;;;;;;;;5028875;28;5013;-60
2023/04/28 05:53:08;;;;;;;;;;;;;;;;;;5029228;28;5451;-60
2023/04/28 05:55:35;;;;;;;;;;;;;;;;;;5027077;28;5158;-60
2023/04/28 05:58:01;;;;;;;;;;;;;;;;;;5029489;28;5067;-60
2023/04/28 06:00:26;;;;;;;;;;;;;;;;;;5028749;28;1374;-60
2023/04/28 06:02:52;;;;;;;;;;;;;;;;;;5027643;28;4571;-60
2023/04/28 06:05:17;;;;;;;;;;;;;;;;;;5028883;28;4645;-60
2023/04/28 06:07:43;;;;;;;;;;;;;;;;;;5028220;28;4665;-60
2023/04/28 06:10:08;;;;;;;;;;;;;;;;;;5026501;28;6611;-60
2023/04/28 06:12:33;;;;;;;;;;;;;;;;;;5029497;28;1112;-60
2023/04/28 06:14:59;;;;;;;;;;;;;;;;;;5028114;28;4397;-60
2023/04/28 06:17:24;;;;;;;;;;;;;;;;;;5028553;28;4863;-61
2023/04/28 06:19:52;;;;;;;;;;;;;;;;;;5028717;28;4632;-60
2023/04/28 06:22:17;;;;;;;;;;;;;;;;;;5028327;28;5093;-60
2023/04/28 06:24:42;;;;;;;;;;;;;;;;;;5028452;28;4467;-61
2023/04/28 06:27:08;;;;;;;;;;;;;;;;;;5027081;28;1177;-60
2023/04/28 06:29:33;;;;;;;;;;;;;;;;;;5028106;28;4920;-60
2023/04/28 06:31:58;;;;;;;;;;;;;;;;;;5028370;28;4615;-60
2023/04/28 06:34:26;;;;;;;;;;;;;;;;;;5027399;28;4854;-60
2023/04/28 06:36:51;;;;;;;;;;;;;;;;;;5028558;28;5127;-60
2023/04/28 06:39:16;;;;;;;;;;;;;;;;;;5028804;28;1093;-60
2023/04/28 06:41:42;;;;;;;;;;;;;;;;;;5028080;28;4609;-60
2023/04/28 06:44:07;;;;;;;;;;;;;;;;;;5027986;28;5112;-59
2023/04/28 06:46:32;;;;;;;;;;;;;;;;;;5028343;28;4460;-59
2023/04/28 06:48:57;;;;;;;;;;;;;;;;;;5028180;28;4638;-60
2023/04/28 06:51:23;;;;;;;;;;;;;;;;;;5028872;28;1096;-60
2023/04/28 06:53:51;;;;;;;;;;;;;;;;;;5027887;28;4833;-59
2023/04/28 06:56:17;;;;;;;;;;;;;;;;;;5027962;28;5071;-59
2023/04/28 06:58:42;;;;;;;;;;;;;;;;;;5026467;28;4540;-60
2023/04/28 07:01:07;;;;;;;;;;;;;;;;;;5023400;28;4536;-60
2023/04/28 07:03:32;;;;;;;;;;;;;;;;;;5028355;28;1087;-60
2023/04/28 07:05:58;;;;;;;;;;;;;;;;;;5027205;28;4664;-60
2023/04/28 07:08:23;;;;;;;;;;;;;;;;;;5026913;28;6455;-60
2023/04/28 07:10:48;;;;;;;;;;;;;;;;;;5018991;28;4455;-60
2023/04/28 07:13:14;;;;;;;;;;;;;;;;;;5027776;28;4462;-60
2023/04/28 07:15:39;;;;;;;;;;;;;;;;;;5028295;28;4629;-59
2023/04/28 07:18:04;;;;;;;;;;;;;;;;;;5028741;28;1113;-60
2023/04/28 07:20:30;;;;;;;;;;;;;;;;;;5027499;28;4651;-59
2023/04/28 07:22:55;;;;;;;;;;;;;;;;;;5028065;28;4815;-60
2023/04/28 07:25:20;;;;;;;;;;;;;;;;;;5028140;28;4642;-60
2023/04/28 07:27:46;;;;;;;;;;;;;;;;;;5027879;28;4937;-60
2023/04/28 07:30:12;;;;;;;;;;;;;;;;;;5026898;28;1160;-60
2023/04/28 07:32:37;;;;;;;;;;;;;;;;;;5027765;28;5008;-60
2023/04/28 07:35:03;;;;;;;;;;;;;;;;;;5028018;28;4986;-59
2023/04/28 07:37:28;;;;;;;;;;;;;;;;;;5028017;28;4489;-59
2023/04/28 07:39:53;;;;;;;;;;;;;;;;;;5028070;28;5108;-60
2023/04/28 07:42:19;;;;;;;;;;;;;;;;;;5028126;28;1966;-60
2023/04/28 07:44:44;;;;;;;;;;;;;;;;;;5027596;28;4485;-60
2023/04/28 07:47:10;;;;;;;;;;;;;;;;;;5027436;28;4651;-60
2023/04/28 07:49:35;;;;;;;;;;;;;;;;;;5026848;28;4571;-60
2023/04/28 07:52:01;;;;;;;;;;;;;;;;;;5027429;28;5235;-60
2023/04/28 07:54:26;;;;;;;;;;;;;;;;;;5028549;28;1250;-60
2023/04/28 07:56:52;;;;;;;;;;;;;;;;;;5030381;28;4519;-60
2023/04/28 07:59:17;;;;;;;;;;;;;;;;;;5031175;28;4425;-59
2023/04/28 08:01:42;;;;;;;;;;;;;;;;;;5028031;28;4473;-60
2023/04/28 08:04:07;;;;;;;;;;;;;;;;;;5029415;28;4610;-60
2023/04/28 08:06:33;;;;;;;;;;;;;;;;;;5031356;28;1049;-59
2023/04/28 08:08:59;;;;;;;;;;;;;;;;;;5029367;28;6506;-60
2023/04/28 08:11:24;;;;;;;;;;;;;;;;;;5031483;28;4430;-60
2023/04/28 08:13:49;;;;;;;;;;;;;;;;;;5030646;28;5412;-60
2023/04/28 08:16:15;;;;;;;;;;;;;;;;;;5030909;28;4651;-60
2023/04/28 08:18:40;;;;;;;;;;;;;;;;;;5029699;28;4653;-60
2023/04/28 08:21:05;;;;;;;;;;;;;;;;;;5031037;28;1915;-60
2023/04/28 08:23:30;;;;;;;;;;;;;;;;;;5028796;28;4563;-60
2023/04/28 08:25:56;;;;;;;;;;;;;;;;;;5030870;28;4467;-60
2023/04/28 08:28:21;;;;;;;;;;;;;;;;;;5029936;28;4526;-60
2023/04/28 08:30:47;;;;;;;;;;;;;;;;;;5029778;28;4856;-60
2023/04/28 08:33:12;;;;;;;;;;;;;;;;;;5030686;28;1103;-60
2023/04/28 08:35:37;;;;;;;;;;;;;;;;;;5030212;28;4558;-59
2023/04/28 08:38:02;;;;;;;;;;;;;;;;;;5030274;28;4529;-60
2023/04/28 08:40:30;;;;;;;;;;;;;;;;;;5028470;28;4486;-59
2023/04/28 08:42:55;;;;;;;;;;;;;;;;;;5028417;28;5841;-60
2023/04/28 08:45:21;;;;;;;;;;;;;;;;;;5030545;28;1360;-61
2023/04/28 08:47:48;;;;;;;;;;;;;;;;;;5028437;28;4645;-60
2023/04/28 08:50:13;;;;;;;;;;;;;;;;;;5028581;28;4842;-59
2023/04/28 08:52:39;;;;;;;;;;;;;;;;;;5030518;28;5257;-60
2023/04/28 08:55:05;;;;;;;;;;;;;;;;;;5030367;28;4983;-59
2023/04/28 08:57:35;;;;;;;;;;;;;;;;;;5029781;28;1274;-60
2023/04/28 09:00:00;;;;;;;;;;;;;;;;;;5043819;28;5202;-60
2023/04/28 09:02:25;;;;;;;;;;;;;;;;;;5041627;28;4692;-60
2023/04/28 09:04:50;;;;;;;;;;;;;;;;;;5030309;28;5112;-60
2023/04/28 09:07:16;;;;;;;;;;;;;;;;;;5026884;28;4543;-60
2023/04/28 09:09:41;;;;;;;;;;;;;;;;;;5027645;28;6518;-60
2023/04/28 09:12:06;;;;;;;;;;;;;;;;;;5029780;28;1203;-59
2023/04/28 09:14:33;;;;;;;;;;;;;;;;;;5029672;28;4994;-59
2023/04/28 09:16:58;;;;;;;;;;;;;;;;;;5027504;28;5174;-60
2023/04/28 09:19:24;;;;;;;;;;;;;;;;;;5029497;28;5173;-59
2023/04/28 09:21:52;;;;;;;;;;;;;;;;;;5029437;28;4537;-60
2023/04/28 09:24:30;;;;;;;;;;;;;;;;;;5029783;28;1073;-60
2023/04/28 09:27:01;;;;;;;;;;;;;;;;;;5027461;28;4471;-60
2023/04/28 09:29:26;;;;;;;;;;;;;;;;;;5029450;28;4927;-60
2023/04/28 09:31:52;;;;;;;;;;;;;;;;;;5028543;28;5078;-60
2023/04/28 09:34:17;;;;;;;;;;;;;;;;;;5028626;28;4450;-61
2023/04/28 09:36:43;;;;;;;;;;;;;;;;;;5028705;28;5020;-60
2023/04/28 09:39:08;;;;;;;;;;;;;;;;;;5029256;28;1109;-60
2023/04/28 09:41:39;;;;;;;;;;;;;;;;;;5029090;28;5066;-60
2023/04/28 09:44:14;;;;;;;;;;;;;;;;;;5028168;28;5542;-59
2023/04/28 09:46:39;;;;;;;;;;;;;;;;;;5028958;28;4922;-60
2023/04/28 09:49:05;;;;;;;;;;;;;;;;;;5028966;28;4975;-59
2023/04/28 09:51:30;;;;;;;;;;;;;;;;;;5027542;28;1194;-60
2023/04/28 09:53:56;;;;;;;;;;;;;;;;;;5027053;28;4415;-59
2023/04/28 09:56:21;;;;;;;;;;;;;;;;;;5027122;28;5055;-61
2023/04/28 09:58:47;;;;;;;;;;;;;;;;;;5027242;28;4494;-61
2023/04/28 10:01:12;;;;;;;;;;;;;;;;;;5023067;28;4736;-59
2023/04/28 10:03:37;;;;;;;;;;;;;;;;;;5060789;28;5093;-60
2023/04/28 10:06:03;;;;;;;;;;;;;;;;;;5028117;28;1194;-61
2023/04/28 10:08:28;;;;;;;;;;;;;;;;;;5025294;28;6721;-61
2023/04/28 10:10:53;;;;;;;;;;;;;;;;;;5056828;28;6170;-61
2023/04/28 10:13:20;;;;;;;;;;;;;;;;;;5027049;28;4554;-60
2023/04/28 10:15:46;;;;;;;;;;;;;;;;;;5027299;28;4959;-60
2023/04/28 10:18:12;;;;;;;;;;;;;;;;;;5028384;28;1069;-60
2023/04/28 10:20:37;;;;;;;;;;;;;;;;;;5028355;28;4673;-60
2023/04/28 10:23:16;;;;;;;;;;;;;;;;;;5028074;28;4754;-60
2023/04/28 10:25:41;;;;;;;;;;;;;;;;;;5027097;28;4533;-60
2023/04/28 10:28:07;;;;;;;;;;;;;;;;;;5028282;28;5090;-60
2023/04/28 10:30:33;;;;;;;;;;;;;;;;;;5027202;28;1118;-59
2023/04/28 10:33:05;;;;;;;;;;;;;;;;;;5027471;28;4668;-60
2023/04/28 10:35:30;;;;;;;;;;;;;;;;;;5027901;28;4826;-60
2023/04/28 10:38:03;;;;;;;;;;;;;;;;;;5027922;28;5257;-60
2023/04/28 10:40:38;;;;;;;;;;;;;;;;;;5027679;28;5106;-60
2023/04/28 10:43:04;;;;;;;;;;;;;;;;;;5027862;28;4916;-60
2023/04/28 10:45:47;;;;;;;;;;;;;;;;;;5028690;28;1296;-60
2023/04/28 10:48:13;;;;;;;;;;;;;;;;;;5025037;28;4465;-60
2023/04/28 10:50:55;;;;;;;;;;;;;;;;;;5044086;28;4932;-60
2023/04/28 10:53:20;;;;;;;;;;;;;;;;;;5031731;28;5028;-59
2023/04/28 10:55:46;;;;;;;;;;;;;;;;;;5022975;28;4653;-61
2023/04/28 10:58:14;;;;;;;;;;;;;;;;;;5057196;28;5098;-60
2023/04/28 11:00:39;;;;;;;;;;;;;;;;;;5028014;28;4728;-60
2023/04/28 11:03:05;;;;;;;;;;;;;;;;;;5025626;28;1993;-59
2023/04/28 11:05:33;;;;;;;;;;;;;;;;;;5020283;28;4423;-60
2023/04/28 11:08:17;;;;;;;;;;;;;;;;;;5027652;28;4883;-60
2023/04/28 11:11:01;;;;;;;;;;;;;;;;;;5027798;28;4641;-60
2023/04/28 11:13:26;;;;;;;;;;;;;;;;;;5025931;28;5142;-60
2023/04/28 11:16:02;;;;;;;;;;;;;;;;;;5028095;28;4680;-61
2023/04/28 11:18:27;;;;;;;;;;;;;;;;;;5037663;28;1176;-61
2023/04/28 11:20:52;;;;;;;;;;;;;;;;;;5028118;28;4388;-60
2023/04/28 11:23:18;;;;;;;;;;;;;;;;;;5026121;28;4490;-60
2023/04/28 11:25:53;;;;;;;;;;;;;;;;;;5037331;28;4529;-61
2023/04/28 11:28:19;;;;;;;;;;;;;;;;;;5047616;28;5100;-61
2023/04/28 11:30:44;;;;;;;;;;;;;;;;;;5050413;28;5196;-61
2023/04/28 11:33:09;;;;;;;;;;;;;;;;;;5051540;28;1054;-60
2023/04/28 11:35:41;;;;;;;;;;;;;;;;;;5051457;28;4433;-61
2023/04/28 11:38:06;;;;;;;;;;;;;;;;;;5050904;28;4440;-60
2023/04/28 11:40:31;;;;;;;;;;;;;;;;;;5051031;28;4840;-60
2023/04/28 11:42:58;;;;;;;;;;;;;;;;;;5049751;28;4977;-60
2023/04/28 11:45:23;;;;;;;;;;;;;;;;;;5051380;28;1280;-60
2023/04/28 11:47:49;;;;;;;;;;;;;;;;;;5048998;28;5370;-59
2023/04/28 11:50:14;;;;;;;;;;;;;;;;;;5050902;28;5027;-59
2023/04/28 11:52:49;;;;;;;;;;;;;;;;;;5050784;28;4733;-60
2023/04/28 11:55:17;;;;;;;;;;;;;;;;;;5050977;28;4487;-59
2023/04/28 11:57:43;;;;;;;;;;;;;;;;;;5049248;28;5113;-60
2023/04/28 12:00:18;;;;;;;;;;;;;;;;;;5051169;28;1100;-59
2023/04/28 12:02:43;;;;;;;;;;;;;;;;;;5043910;28;4490;-59
2023/04/28 12:05:09;;;;;;;;;;;;;;;;;;5049344;28;4638;-59
2023/04/28 12:07:44;;;;;;;;;;;;;;;;;;5050388;28;4674;-60
2023/04/28 12:10:10;;;;;;;;;;;;;;;;;;5049169;28;6724;-60
2023/04/28 12:12:35;;;;;;;;;;;;;;;;;;5050762;28;4621;-59
2023/04/28 12:15:00;;;;;;;;;;;;;;;;;;5051175;28;1168;-59
2023/04/28 12:17:35;;;;;;;;;;;;;;;;;;5050019;28;4531;-59
2023/04/28 12:20:01;;;;;;;;;;;;;;;;;;5050423;28;5048;-59
2023/04/28 12:22:26;;;;;;;;;;;;;;;;;;5048883;28;4703;-60
2023/04/28 12:25:18;;;;;;;;;;;;;;;;;;5050618;28;4654;-60
2023/04/28 12:28:02;;;;;;;;;;;;;;;;;;5042355;28;5004;-60
2023/04/28 12:30:27;;;;;;;;;;;;;;;;;;5050988;28;1275;-60
2023/04/28 12:32:54;;;;;;;;;;;;;;;;;;5049774;28;4848;-60
2023/04/28 12:35:24;;;;;;;;;;;;;;;;;;5050130;28;4635;-60
2023/04/28 12:37:49;;;;;;;;;;;;;;;;;;5050389;28;5449;-60
2023/04/28 12:40:14;;;;;;;;;;;;;;;;;;5049834;28;5064;-60
2023/04/28 12:42:39;;;;;;;;;;;;;;;;;;5048833;28;4941;-60
2023/04/28 12:45:05;;;;;;;;;;;;;;;;;;5050162;28;993;-60
2023/04/28 12:47:30;;;;;;;;;;;;;;;;;;5050480;28;4622;-59
2023/04/28 12:49:56;;;;;;;;;;;;;;;;;;5050092;28;5101;-60
2023/04/28 12:52:21;;;;;;;;;;;;;;;;;;5044102;28;4981;-60
2023/04/28 12:54:47;;;;;;;;;;;;;;;;;;5050405;28;4609;-59
2023/04/28 12:57:12;;;;;;;;;;;;;;;;;;5048730;28;1654;-60
2023/04/28 12:59:38;;;;;;;;;;;;;;;;;;5050145;28;4516;-60
2023/04/28 13:02:03;;;;;;;;;;;;;;;;;;5045676;28;4684;-59
2023/04/28 13:04:29;;;;;;;;;;;;;;;;;;5048222;28;4543;-60
2023/04/28 13:06:54;;;;;;;;;;;;;;;;;;5050203;28;4508;-60
2023/04/28 13:09:20;;;;;;;;;;;;;;;;;;5045266;28;6292;-60
2023/04/28 13:11:46;;;;;;;;;;;;;;;;;;5049406;28;4638;-60
2023/04/28 13:14:11;;;;;;;;;;;;;;;;;;5048314;28;5035;-60
2023/04/28 13:16:36;;;;;;;;;;;;;;;;;;5050021;28;4923;-60
2023/04/28 13:19:02;;;;;;;;;;;;;;;;;;5049544;28;5034;-60
2023/04/28 13:21:27;;;;;;;;;;;;;;;;;;5036743;28;1910;-60
2023/04/28 13:23:53;;;;;;;;;;;;;;;;;;5047862;28;4491;-60
2023/04/28 13:26:19;;;;;;;;;;;;;;;;;;5047744;28;4925;-59
2023/04/28 13:28:45;;;;;;;;;;;;;;;;;;5049505;28;5086;-60
2023/04/28 13:31:11;;;;;;;;;;;;;;;;;;5049044;28;4986;-60
2023/04/28 13:33:36;;;;;;;;;;;;;;;;;;5049312;28;4578;-60
2023/04/28 13:36:01;;;;;;;;;;;;;;;;;;5049718;28;1132;-59
2023/04/28 13:38:26;;;;;;;;;;;;;;;;;;5048459;28;4788;-60
2023/04/28 13:40:52;;;;;;;;;;;;;;;;;;5047731;28;4526;-59
2023/04/28 13:43:17;;;;;;;;;;;;;;;;;;5048982;28;5070;-59
2023/04/28 13:45:42;;;;;;;;;;;;;;;;;;5048768;28;4489;-59
2023/04/28 13:48:08;;;;;;;;;;;;;;;;;;5047601;28;1116;-59
2023/04/28 13:50:33;;;;;;;;;;;;;;;;;;5040896;28;4608;-59
2023/04/28 13:52:58;;;;;;;;;;;;;;;;;;5042475;28;4624;-59
2023/04/28 13:55:26;;;;;;;;;;;;;;;;;;5048105;28;4482;-58
2023/04/28 13:57:52;;;;;;;;;;;;;;;;;;5047187;28;4548;-61
2023/04/28 14:00:19;;;;;;;;;;;;;;;;;;5047884;28;1127;-61
2023/04/28 14:02:44;;;;;;;;;;;;;;;;;;5045212;28;4406;-60
2023/04/28 14:05:10;;;;;;;;;;;;;;;;;;5048035;28;4444;-60
2023/04/28 14:07:36;;;;;;;;;;;;;;;;;;5048203;28;4456;-60
2023/04/28 14:10:01;;;;;;;;;;;;;;;;;;5041732;28;6489;-61
2023/04/28 14:12:27;;;;;;;;;;;;;;;;;;5047471;28;1273;-60
2023/04/28 14:14:53;;;;;;;;;;;;;;;;;;5048193;28;4963;-60
2023/04/28 14:17:18;;;;;;;;;;;;;;;;;;5048684;28;5155;-60
2023/04/28 14:19:43;;;;;;;;;;;;;;;;;;5048387;28;5352;-60
2023/04/28 14:22:08;;;;;;;;;;;;;;;;;;5048104;28;4658;-60
2023/04/28 14:24:34;;;;;;;;;;;;;;;;;;5048594;28;1026;-60
2023/04/28 14:26:59;;;;;;;;;;;;;;;;;;5047763;28;4395;-59
2023/04/28 14:29:24;;;;;;;;;;;;;;;;;;5048137;28;4432;-60
2023/04/28 14:31:50;;;;;;;;;;;;;;;;;;5047376;28;4686;-60
2023/04/28 14:34:15;;;;;;;;;;;;;;;;;;5047773;28;4500;-60
2023/04/28 14:36:42;;;;;;;;;;;;;;;;;;5046921;28;4644;-60
2023/04/28 14:39:07;;;;;;;;;;;;;;;;;;5048356;28;1104;-60
2023/04/28 14:41:32;;;;;;;;;;;;;;;;;;5047416;28;5531;-60
2023/04/28 14:43:57;;;;;;;;;;;;;;;;;;5047935;28;4503;-60
2023/04/28 14:46:23;;;;;;;;;;;;;;;;;;5046349;28;4666;-60
2023/04/28 14:48:48;;;;;;;;;;;;;;;;;;5046541;28;4808;-60
2023/04/28 14:51:14;;;;;;;;;;;;;;;;;;5047682;28;1112;-60
2023/04/28 14:53:39;;;;;;;;;;;;;;;;;;5046599;28;4500;-60
2023/04/28 14:56:05;;;;;;;;;;;;;;;;;;5047523;28;4669;-60
2023/04/28 14:58:30;;;;;;;;;;;;;;;;;;5047768;28;4502;-60
2023/04/28 15:00:55;;;;;;;;;;;;;;;;;;5046998;28;4635;-60
2023/04/28 15:03:21;;;;;;;;;;;;;;;;;;5046382;28;1977;-60
2023/04/28 15:05:46;;;;;;;;;;;;;;;;;;5054199;28;4686;-61
2023/04/28 15:08:12;;;;;;;;;;;;;;;;;;5054146;28;4694;-60
2023/04/28 15:10:37;;;;;;;;;;;;;;;;;;5048986;28;6709;-60
2023/04/28 15:13:03;;;;;;;;;;;;;;;;;;5054709;28;5075;-60
2023/04/28 15:15:28;;;;;;;;;;;;;;;;;;5054943;28;1241;-60
2023/04/28 15:17:59;;;;;;;;;;;;;;;;;;5053653;28;4561;-60
2023/04/28 15:20:24;;;;;;;;;;;;;;;;;;5053919;28;4460;-60
2023/04/28 15:22:50;;;;;;;;;;;;;;;;;;5054414;28;5049;-60
2023/04/28 15:25:15;;;;;;;;;;;;;;;;;;5053709;28;5177;-60
2023/04/28 15:27:40;;;;;;;;;;;;;;;;;;5054286;28;4890;-60
2023/04/28 15:30:07;;;;;;;;;;;;;;;;;;5054750;28;1160;-60
2023/04/28 15:32:32;;;;;;;;;;;;;;;;;;5052452;28;4604;-60
2023/04/28 15:34:58;;;;;;;;;;;;;;;;;;5054083;28;5079;-60
2023/04/28 15:37:37;;;;;;;;;;;;;;;;;;5054121;28;4477;-60
2023/04/28 15:40:05;;;;;;;;;;;;;;;;;;5053979;28;4680;-60
2023/04/28 15:42:30;;;;;;;;;;;;;;;;;;5054272;28;1913;-59
2023/04/28 15:44:56;;;;;;;;;;;;;;;;;;5053550;28;4583;-59
2023/04/28 15:47:21;;;;;;;;;;;;;;;;;;5053866;28;5567;-59
2023/04/28 15:49:46;;;;;;;;;;;;;;;;;;5053970;28;5048;-60
2023/04/28 15:52:12;;;;;;;;;;;;;;;;;;5053309;28;4622;-59
2023/04/28 15:54:38;;;;;;;;;;;;;;;;;;5053957;28;4602;-60
2023/04/28 15:57:04;;;;;;;;;;;;;;;;;;5054074;28;1116;-58
2023/04/28 15:59:30;;;;;;;;;;;;;;;;;;5052193;28;5052;-59
2023/04/28 16:01:55;;;;;;;;;;;;;;;;;;5051191;28;4682;-60
2023/04/28 16:04:20;;;;;;;;;;;;;;;;;;5053711;28;4667;-59
2023/04/28 16:06:46;;;;;;;;;;;;;;;;;;5053430;28;4553;-61
2023/04/28 16:09:11;;;;;;;;;;;;;;;;;;5048871;28;6272;-59
2023/04/28 16:11:37;;;;;;;;;;;;;;;;;;5053662;28;5363;-59
2023/04/28 16:14:03;;;;;;;;;;;;;;;;;;5053603;28;4676;-60
2023/04/28 16:16:29;;;;;;;;;;;;;;;;;;5050172;28;5001;-60
2023/04/28 16:18:54;;;;;;;;;;;;;;;;;;5050416;28;4680;-60
2023/04/28 16:21:19;;;;;;;;;;;;;;;;;;5050558;28;1975;-60
2023/04/28 16:23:45;;;;;;;;;;;;;;;;;;5050445;28;4643;-59
2023/04/28 16:26:10;;;;;;;;;;;;;;;;;;5050170;28;4537;-60
2023/04/28 16:28:35;;;;;;;;;;;;;;;;;;5047720;28;4718;-59
2023/04/28 16:31:01;;;;;;;;;;;;;;;;;;5049904;28;5104;-61
2023/04/28 16:33:26;;;;;;;;;;;;;;;;;;5050696;28;1147;-60
2023/04/28 16:35:55;;;;;;;;;;;;;;;;;;5049932;28;4647;-60
2023/04/28 16:38:21;;;;;;;;;;;;;;;;;;5049600;28;4584;-60
2023/04/28 16:40:46;;;;;;;;;;;;;;;;;;5050572;28;4643;-60
2023/04/28 16:43:11;;;;;;;;;;;;;;;;;;5050228;28;4985;-60
2023/04/28 16:45:37;;;;;;;;;;;;;;;;;;5049130;28;4521;-59
2023/04/28 16:48:02;;;;;;;;;;;;;;;;;;5050361;28;1234;-60
2023/04/28 16:50:27;;;;;;;;;;;;;;;;;;5050107;28;4566;-60
2023/04/28 16:52:52;;;;;;;;;;;;;;;;;;5049832;28;5079;-60
2023/04/28 16:55:18;;;;;;;;;;;;;;;;;;5049461;28;4464;-61